Colatina, Brazil
Current Conditions -  °F | °C
As of 6:00 PM on Saturday 20 Dec 2014 (Local Time) from SBVT Reporting Station
Few Clouds Few Clouds  
Wind Chill: 28°   Ceiling: Unl
Heat Index: 30°   Visibility: 6mi
Dew Point: 21°   Wind: 21mph
Humidity: 66%   Direction: 50°NE
Pressure: 29.8"   Gusts: NA
Location:  19.54°S, 40.63°W
Report Text: SBVT 202000Z 05018KT 9999 FEW030 28/21 Q1009
Loading
Personal Weather Stations






























Interactive Weather Map New forecast layout! Learn more

10-Day Weather Forecast

Advertisements
Track Severe Weather on mobile